Flight Number: AVA5113 Duration: 2:00
Departure: Libreville (FOOL) at 10:15 Distance: 777.738 Nm
Arrival: NDjamena Intl airport (FTTJ) at 12:15 Equipment: B737

Weather Information
Libreville, Gabon (FOOL) 00-27N 009-25E 15M Jun 19, 2024 - 09:00 AM EDT / 2024.06.19 1300 UTC
Wind: from the SW (220 degrees) at 8 MPH (7 KT) (direction variable):0
Visibility: greater than 7 mile(s):0
Sky conditions: mostly clear Temperature: 86 F (30 C) Heat index: 93.4 F (34.1 C):1 Dew Point: 73 F (23 C) Relative Humidity: 66% Pressure (altimeter): 29.85 in. Hg (1011 hPa)
ob: FOOL 191300Z 22007KT 190V250 9999 FEW013 30/23 Q1011 NOSIG cycle: 13
Sunrise: 05:22 Sunset: 17:25 (UTC)

Ndjamena, Chad (FTTJ) 12-08N 015-02E 295M Jun 19, 2024 - 09:00 AM EDT / 2024.06.19 1300 UTC
Wind: Variable at 3 MPH (3 KT):0
Visibility: 4 mile(s):0
Sky conditions: partly cloudy Temperature: 104 F (40 C) Heat index: 108.9 F (42.7 C):1 Dew Point: 66 F (19 C) Relative Humidity: 29% Pressure (altimeter): 29.74 in. Hg (1007 hPa)
ob: FTTJ 191300Z VRB03KT 8000 SCT040 40/19 Q1007 NOSIG cycle: 13
Sunrise: 04:38 Sunset: 17:24 (UTC)

TAF:2024/06/19 12:12 TAF TAF FTTJ 191100Z 1912/2018 18006KT 8000 NSC PROB30 TEMPO 1915/1920 VRB18G30KT 3000 BLDU TSRA PROB30 TEMPO 2014/2018 VRB22KT 2500 TSRA

Previous Pireps for this route
Date Flightnr Aircraft Flight time Fuel used Landing rate On time
2015-03-08AVA5113B73701.5911847-399Yes
2017-06-16AVA5113B73702.1512001-248Yes
2020-02-04AVA5113B73702.1512486-234Yes
2020-04-22AVX9190B1900D3.072871-575Charter
(pireps marked green are flown by you)

Route map